1988 SKIP (1988308N09140)


On this page: IBTrACS data - Map and Plots - Positions - Intensities - Original source data

Summary

Start Nov 3
End Nov 12
Basin WP
LMI 125 kt
Sources jtwc_wp
tokyo
cma
hko
td9636
In WMO? Yes
Previous storm 1988 TESS (WP)
Previous in basin 1988 TESS (WP)
Concurrent storms 1989 ADELININA (SI)
1988 TESS (WP)
1988 TESS (WP)
1988 SKIP (WP)
1989 BARISAONA (SI)
1989 ADELININA (SI)
Next in basin Missing
Next storm 1989 BARISAONA (SI)

top of page IBTrACS Data: File Access

top of page HURSAT Data: File Access

Image of storm

top of page Plots:

Map of storm track will not appear if FTP is down
Time series of cyclone Maximum Sustained Wind will not appear if FTP is down
Time series of cyclone Minimum Central Pressure will not appear if FTP is down

top of page Track Data:Position

jtwc_wp tokyo cma hko td9636
Date Lat Lon Lat Lon Lat Lon Lat Lon Lat Lon
1988-11-03 00:00:00 9.2 140.3 8.5 140.5 8.3 140.3 9.2 140.3
1988-11-03 06:00:00 9.2 140.0 8.5 140.0 8.5 140.0 8.6 140.2 9.2 140.0
1988-11-03 12:00:00 9.2 139.7 8.5 139.7 8.6 139.6 8.7 140.0 9.2 139.7
1988-11-03 18:00:00 9.1 139.4 8.6 139.5 8.7 139.3 8.7 139.8 9.1 139.4
1988-11-04 00:00:00 9.0 139.0 8.4 139.2 8.7 139.0 8.7 139.4 9.0 139.0
1988-11-04 06:00:00 8.9 138.4 8.4 138.7 8.5 138.6 8.6 138.5 8.9 138.4
1988-11-04 12:00:00 8.8 137.7 8.5 137.8 8.6 137.8 8.6 137.8 8.8 137.7
1988-11-04 18:00:00 8.8 136.8 8.6 136.9 8.7 137.0 8.6 136.9 8.8 136.8
1988-11-05 00:00:00 8.9 135.7 8.8 135.8 8.7 135.8 8.8 135.7 8.9 135.7
1988-11-05 06:00:00 9.1 134.6 9.1 134.7 9.1 134.8 9.1 134.7 9.1 134.5
1988-11-05 12:00:00 9.3 133.3 9.5 133.5 9.3 133.5 9.5 133.5 9.3 133.3
1988-11-05 18:00:00 9.4 132.2 9.6 132.3 9.4 132.3 9.5 132.3 9.4 132.2
1988-11-06 00:00:00 9.6 131.0 9.7 131.1 9.5 131.2 9.7 131.1 9.6 131.0
1988-11-06 06:00:00 9.8 129.9 10.0 130.0 9.9 130.0 10.0 129.9 9.9 129.8
1988-11-06 12:00:00 10.2 128.6 10.3 128.7 10.3 128.7 10.3 128.7 10.2 128.6
1988-11-06 18:00:00 10.4 127.3 10.7 127.4 10.8 127.5 10.6 127.4 10.4 127.4
1988-11-07 00:00:00 10.8 126.0 11.0 126.0 11.1 126.1 11.0 126.0 10.8 126.0
1988-11-07 06:00:00 11.4 124.5 11.5 124.5 11.6 124.6 11.6 124.6 11.5 124.5
1988-11-07 12:00:00 12.3 122.8 12.5 123.2 12.5 123.0 12.3 123.2 12.3 122.8
1988-11-07 18:00:00 12.8 120.7 12.7 121.7 12.7 121.9 12.5 121.7 12.8 120.9
1988-11-08 00:00:00 13.1 119.1 13.0 119.6 12.9 120.8 12.6 120.2 13.1 119.1
1988-11-08 06:00:00 13.3 117.8 13.0 118.0 13.2 119.0 12.8 119.1 13.4 117.8
1988-11-08 12:00:00 13.7 116.7 13.4 117.2 13.5 117.4 13.3 118.1 13.7 116.7
1988-11-08 18:00:00 14.1 115.8 13.9 116.3 13.8 116.5 13.7 117.1 14.1 115.8
1988-11-09 00:00:00 14.5 115.0 14.2 116.0 14.2 115.8 14.2 116.1 14.5 115.0
jtwc_wp tokyo cma hko td9636
1988-11-09 06:00:00 14.9 114.3 14.5 115.7 14.7 115.2 14.6 115.0 14.9 114.3
1988-11-09 12:00:00 15.2 113.7 14.7 115.0 14.9 114.2 14.9 114.3 15.2 113.7
1988-11-09 18:00:00 15.3 113.2 14.8 114.3 15.0 113.5 15.1 113.6 15.3 113.2
1988-11-10 00:00:00 15.4 112.9 15.0 113.8 15.0 112.9 15.3 113.0 15.4 112.9
1988-11-10 06:00:00 15.5 112.6 15.1 113.5 15.1 112.7 15.5 112.4 15.4 112.6
1988-11-10 12:00:00 15.5 112.3 15.2 113.0 15.2 112.3 15.7 111.9 15.5 112.3
1988-11-10 18:00:00 15.6 111.8 15.2 112.5 15.3 112.0 15.6 111.6 15.6 111.8
1988-11-11 00:00:00 15.7 111.3 15.2 112.0 15.3 111.6 15.4 111.4 15.7 111.3
1988-11-11 06:00:00 15.7 111.0 15.3 111.5 15.2 111.2 15.1 111.0 15.8 111.0
1988-11-11 12:00:00 15.8 110.7 15.3 111.0 15.2 110.7 15.2 110.5 15.8 110.7
1988-11-11 18:00:00 15.8 110.3 15.4 110.5 15.1 110.3 15.4 110.3 15.8 110.4
1988-11-12 00:00:00 15.9 110.0 15.5 110.0 15.3 110.0 15.7 110.2 15.9 110.0
1988-11-12 06:00:00 15.7 109.5 15.5 109.3
1988-11-12 12:00:00 16.0 109.0 15.8 108.5
1988-11-12 18:00:00 16.3 108.7

top of pageTrack Data:Intensity

jtwc_wp tokyo cma hko td9636
Date Wind Pres Wind Pres Wind Pres Wind Pres Wind Pres
1988-11-03 00:00:00 25. 1004. 23. 1004. 25.
1988-11-03 06:00:00 30. 1000. 29. 1000. 25. 1000. 25.
1988-11-03 12:00:00 30. 998. 29. 1000. 25. 1000. 30.
1988-11-03 18:00:00 35. 35. 994. 29. 998. 30. 995. 30.
1988-11-04 00:00:00 45. 50. 990. 39. 995. 40. 990. 45.
1988-11-04 06:00:00 55. 55. 985. 49. 985. 50. 985. 45.
1988-11-04 12:00:00 65. 55. 985. 58. 980. 55. 985. 65.
1988-11-04 18:00:00 75. 60. 980. 58. 980. 60. 980. 65.
1988-11-05 00:00:00 90. 60. 975. 58. 980. 65. 975. 90.
1988-11-05 06:00:00 95. 65. 970. 58. 980. 65. 975. 90.
1988-11-05 12:00:00 100. 70. 965. 68. 970. 70. 970. 100.
1988-11-05 18:00:00 105. 75. 960. 78. 960. 75. 970. 100.
1988-11-06 00:00:00 115. 75. 955. 78. 960. 80. 970. 115.
1988-11-06 06:00:00 125. 80. 950. 87. 955. 85. 965. 115.
1988-11-06 12:00:00 125. 80. 950. 87. 955. 85. 965. 125.
1988-11-06 18:00:00 120. 75. 950. 87. 955. 85. 965. 125.
1988-11-07 00:00:00 120. 70. 955. 87. 955. 90. 965. 120.
1988-11-07 06:00:00 105. 60. 975. 78. 965. 95. 960. 120.
1988-11-07 12:00:00 100. 65. 975. 78. 965. 100. 960. 100.
1988-11-07 18:00:00 95. 55. 980. 78. 970. 90. 965. 100.
1988-11-08 00:00:00 90. 55. 980. 68. 970. 75. 970. 90.
1988-11-08 06:00:00 90. 55. 980. 68. 970. 65. 975. 90.
1988-11-08 12:00:00 90. 55. 980. 58. 980. 65. 975. 90.
1988-11-08 18:00:00 90. 55. 980. 58. 980. 65. 975. 90.
1988-11-09 00:00:00 85. 55. 980. 49. 985. 60. 980. 85.
jtwc_wp tokyo cma hko td9636
1988-11-09 06:00:00 85. 50. 985. 49. 985. 55. 985. 85.
1988-11-09 12:00:00 90. 50. 985. 49. 985. 55. 985. 90.
1988-11-09 18:00:00 90. 50. 985. 49. 985. 55. 985. 90.
1988-11-10 00:00:00 90. 50. 985. 49. 985. 55. 985. 90.
1988-11-10 06:00:00 75. 50. 985. 49. 985. 55. 985. 90.
1988-11-10 12:00:00 65. 45. 990. 49. 985. 45. 990. 65.
1988-11-10 18:00:00 55. 45. 992. 49. 985. 45. 990. 65.
1988-11-11 00:00:00 45. 40. 994. 39. 990. 45. 990. 45.
1988-11-11 06:00:00 45. 40. 994. 39. 990. 45. 990. 45.
1988-11-11 12:00:00 45. 40. 996. 39. 990. 40. 995. 45.
1988-11-11 18:00:00 45. 40. 998. 39. 990. 40. 995. 45.
1988-11-12 00:00:00 45. 40. 1000. 39. 990. 30. 1000. 45.
1988-11-12 06:00:00 1004. 39. 995.
1988-11-12 12:00:00 1008. 23. 1000.
1988-11-12 18:00:00 1012.

top of page Links to source data

Source Source file Format
jtwc_wp bwp241988.txt ATCF
tokyo bst_all.txt:Line=37488:SKIP:8829 JMA text table
cma CH1988BST.txt:Storm=34:Skip CMA text table
hko tc-besttrack-data.txt:Line=19722:SKIP HKO Text table
td9636 cons_worldwide_trop_cyclone_18710101-19891231-003:Line=31614 TD 9636